sensor_id;sensor_type;location;lat;lon;timestamp;P1;durP1;ratioP1;P2;durP2;ratioP2
77522;SDS011;66637;-29.628;-49.938;2023-05-17T00:00:42;28.10;;;4.53;;
77522;SDS011;66637;-29.628;-49.938;2023-05-17T00:03:16;20.63;;;2.83;;
77522;SDS011;66637;-29.628;-49.938;2023-05-17T00:05:52;13.85;;;2.35;;
77522;SDS011;66637;-29.628;-49.938;2023-05-17T00:08:27;17.67;;;2.20;;
77522;SDS011;66637;-29.628;-49.938;2023-05-17T00:11:04;11.63;;;2.45;;
77522;SDS011;66637;-29.628;-49.938;2023-05-17T00:13:42;21.42;;;2.92;;
77522;SDS011;66637;-29.628;-49.938;2023-05-17T00:16:17;77.53;;;9.18;;
77522;SDS011;66637;-29.628;-49.938;2023-05-17T00:18:55;81.53;;;9.77;;
77522;SDS011;66637;-29.628;-49.938;2023-05-17T00:21:28;47.03;;;5.25;;
77522;SDS011;66637;-29.628;-49.938;2023-05-17T00:24:03;37.97;;;3.92;;
77522;SDS011;66637;-29.628;-49.938;2023-05-17T00:26:42;15.57;;;1.88;;
77522;SDS011;66637;-29.628;-49.938;2023-05-17T00:29:18;56.17;;;7.30;;
77522;SDS011;66637;-29.628;-49.938;2023-05-17T00:31:50;69.85;;;8.50;;
77522;SDS011;66637;-29.628;-49.938;2023-05-17T00:34:24;25.60;;;3.58;;
77522;SDS011;66637;-29.628;-49.938;2023-05-17T00:36:59;18.33;;;3.22;;
77522;SDS011;66637;-29.628;-49.938;2023-05-17T00:39:39;25.77;;;7.35;;
77522;SDS011;66637;-29.628;-49.938;2023-05-17T00:42:10;24.92;;;8.90;;
77522;SDS011;66637;-29.628;-49.938;2023-05-17T00:44:44;23.65;;;8.38;;
77522;SDS011;66637;-29.628;-49.938;2023-05-17T00:47:22;24.35;;;9.10;;
77522;SDS011;66637;-29.628;-49.938;2023-05-17T00:49:55;28.17;;;12.93;;
77522;SDS011;66637;-29.628;-49.938;2023-05-17T00:52:38;30.08;;;14.88;;
77522;SDS011;66637;-29.628;-49.938;2023-05-17T00:55:16;25.58;;;12.13;;
77522;SDS011;66637;-29.628;-49.938;2023-05-17T00:57:58;20.73;;;10.95;;
77522;SDS011;66637;-29.628;-49.938;2023-05-17T01:00:31;21.45;;;8.23;;
77522;SDS011;66637;-29.628;-49.938;2023-05-17T01:03:04;17.23;;;5.10;;
77522;SDS011;66637;-29.628;-49.938;2023-05-17T01:05:36;14.40;;;3.35;;
77522;SDS011;66637;-29.628;-49.938;2023-05-17T01:08:09;12.23;;;3.13;;
77522;SDS011;66637;-29.628;-49.938;2023-05-17T01:14:01;17.45;;;2.10;;
77522;SDS011;66637;-29.628;-49.938;2023-05-17T01:16:59;14.60;;;2.55;;
77522;SDS011;66637;-29.628;-49.938;2023-05-17T01:23:06;60.58;;;26.00;;
77522;SDS011;66637;-29.628;-49.938;2023-05-17T01:29:15;16.65;;;6.70;;
77522;SDS011;66637;-29.628;-49.938;2023-05-17T01:31:50;19.45;;;6.55;;
77522;SDS011;66637;-29.628;-49.938;2023-05-17T01:34:27;19.73;;;8.90;;
77522;SDS011;66637;-29.628;-49.938;2023-05-17T01:36:58;20.58;;;5.47;;
77522;SDS011;66637;-29.628;-49.938;2023-05-17T01:39:33;19.52;;;8.15;;
77522;SDS011;66637;-29.628;-49.938;2023-05-17T01:42:27;17.83;;;7.25;;
77522;SDS011;66637;-29.628;-49.938;2023-05-17T01:50:39;15.70;;;4.25;;
77522;SDS011;66637;-29.628;-49.938;2023-05-17T01:53:47;13.82;;;3.63;;
77522;SDS011;66637;-29.628;-49.938;2023-05-17T01:56:19;20.23;;;4.13;;
77522;SDS011;66637;-29.628;-49.938;2023-05-17T01:59:01;23.50;;;7.20;;
77522;SDS011;66637;-29.628;-49.938;2023-05-17T02:01:38;16.60;;;3.38;;
77522;SDS011;66637;-29.628;-49.938;2023-05-17T02:04:11;12.60;;;2.30;;
77522;SDS011;66637;-29.628;-49.938;2023-05-17T02:06:53;11.35;;;3.40;;
77522;SDS011;66637;-29.628;-49.938;2023-05-17T02:09:24;13.52;;;2.53;;
77522;SDS011;66637;-29.628;-49.938;2023-05-17T02:11:56;12.90;;;3.13;;
77522;SDS011;66637;-29.628;-49.938;2023-05-17T02:14:27;17.13;;;3.35;;
77522;SDS011;66637;-29.628;-49.938;2023-05-17T02:16:59;14.27;;;3.08;;
77522;SDS011;66637;-29.628;-49.938;2023-05-17T02:19:31;13.80;;;2.97;;
77522;SDS011;66637;-29.628;-49.938;2023-05-17T02:24:40;12.15;;;2.70;;
77522;SDS011;66637;-29.628;-49.938;2023-05-17T02:27:12;15.30;;;2.53;;
77522;SDS011;66637;-29.628;-49.938;2023-05-17T02:29:44;10.85;;;2.50;;
77522;SDS011;66637;-29.628;-49.938;2023-05-17T02:32:14;12.32;;;2.78;;
77522;SDS011;66637;-29.628;-49.938;2023-05-17T02:34:45;11.23;;;2.30;;
77522;SDS011;66637;-29.628;-49.938;2023-05-17T02:37:16;14.15;;;2.65;;
77522;SDS011;66637;-29.628;-49.938;2023-05-17T02:39:47;14.15;;;2.58;;
77522;SDS011;66637;-29.628;-49.938;2023-05-17T02:42:18;11.85;;;2.25;;
77522;SDS011;66637;-29.628;-49.938;2023-05-17T02:44:49;9.35;;;2.08;;
77522;SDS011;66637;-29.628;-49.938;2023-05-17T02:47:22;14.63;;;2.50;;
77522;SDS011;66637;-29.628;-49.938;2023-05-17T02:49:54;11.98;;;2.88;;
77522;SDS011;66637;-29.628;-49.938;2023-05-17T02:52:27;9.20;;;1.90;;
77522;SDS011;66637;-29.628;-49.938;2023-05-17T02:55:00;8.90;;;1.70;;
77522;SDS011;66637;-29.628;-49.938;2023-05-17T02:57:30;11.75;;;1.70;;
77522;SDS011;66637;-29.628;-49.938;2023-05-17T03:00:03;10.45;;;1.90;;
77522;SDS011;66637;-29.628;-49.938;2023-05-17T03:02:35;11.23;;;1.80;;
77522;SDS011;66637;-29.628;-49.938;2023-05-17T03:05:07;12.27;;;2.22;;
77522;SDS011;66637;-29.628;-49.938;2023-05-17T03:07:48;10.38;;;1.70;;
77522;SDS011;66637;-29.628;-49.938;2023-05-17T03:10:19;7.70;;;1.85;;
77522;SDS011;66637;-29.628;-49.938;2023-05-17T03:12:50;9.25;;;1.95;;
77522;SDS011;66637;-29.628;-49.938;2023-05-17T03:15:23;7.72;;;1.88;;
77522;SDS011;66637;-29.628;-49.938;2023-05-17T03:17:56;11.38;;;2.05;;
77522;SDS011;66637;-29.628;-49.938;2023-05-17T03:20:28;16.15;;;2.58;;
77522;SDS011;66637;-29.628;-49.938;2023-05-17T03:23:00;11.73;;;2.20;;
77522;SDS011;66637;-29.628;-49.938;2023-05-17T03:25:33;12.65;;;2.03;;
77522;SDS011;66637;-29.628;-49.938;2023-05-17T03:28:06;9.40;;;2.25;;
77522;SDS011;66637;-29.628;-49.938;2023-05-17T03:30:37;12.73;;;1.88;;
77522;SDS011;66637;-29.628;-49.938;2023-05-17T03:33:09;10.25;;;1.77;;
77522;SDS011;66637;-29.628;-49.938;2023-05-17T03:35:40;9.95;;;1.83;;
77522;SDS011;66637;-29.628;-49.938;2023-05-17T03:38:10;11.25;;;1.85;;
77522;SDS011;66637;-29.628;-49.938;2023-05-17T03:40:42;11.15;;;1.83;;
77522;SDS011;66637;-29.628;-49.938;2023-05-17T03:43:13;9.77;;;2.13;;
77522;SDS011;66637;-29.628;-49.938;2023-05-17T03:45:45;14.63;;;1.70;;
77522;SDS011;66637;-29.628;-49.938;2023-05-17T03:48:17;9.88;;;1.50;;
77522;SDS011;66637;-29.628;-49.938;2023-05-17T03:50:48;10.02;;;1.83;;
77522;SDS011;66637;-29.628;-49.938;2023-05-17T03:53:18;7.28;;;1.40;;
77522;SDS011;66637;-29.628;-49.938;2023-05-17T03:55:48;9.10;;;1.67;;
77522;SDS011;66637;-29.628;-49.938;2023-05-17T03:58:20;10.40;;;1.58;;
77522;SDS011;66637;-29.628;-49.938;2023-05-17T04:00:52;9.10;;;1.42;;
77522;SDS011;66637;-29.628;-49.938;2023-05-17T04:03:22;9.57;;;1.35;;
77522;SDS011;66637;-29.628;-49.938;2023-05-17T04:05:53;7.72;;;1.23;;
77522;SDS011;66637;-29.628;-49.938;2023-05-17T04:08:29;9.02;;;1.30;;
77522;SDS011;66637;-29.628;-49.938;2023-05-17T04:10:59;9.60;;;1.75;;
77522;SDS011;66637;-29.628;-49.938;2023-05-17T04:13:39;8.60;;;1.08;;
77522;SDS011;66637;-29.628;-49.938;2023-05-17T04:16:11;8.40;;;1.30;;
77522;SDS011;66637;-29.628;-49.938;2023-05-17T04:18:42;8.35;;;0.90;;
77522;SDS011;66637;-29.628;-49.938;2023-05-17T04:21:14;9.13;;;1.13;;
77522;SDS011;66637;-29.628;-49.938;2023-05-17T04:23:45;6.47;;;0.95;;
77522;SDS011;66637;-29.628;-49.938;2023-05-17T04:26:17;5.65;;;0.98;;
77522;SDS011;66637;-29.628;-49.938;2023-05-17T04:28:48;9.15;;;1.17;;
77522;SDS011;66637;-29.628;-49.938;2023-05-17T04:31:19;9.32;;;1.08;;
77522;SDS011;66637;-29.628;-49.938;2023-05-17T04:33:50;9.88;;;1.27;;
77522;SDS011;66637;-29.628;-49.938;2023-05-17T04:36:22;9.15;;;1.35;;
77522;SDS011;66637;-29.628;-49.938;2023-05-17T04:38:54;6.03;;;0.88;;
77522;SDS011;66637;-29.628;-49.938;2023-05-17T04:41:28;8.38;;;1.35;;
77522;SDS011;66637;-29.628;-49.938;2023-05-17T04:44:02;5.80;;;1.13;;
77522;SDS011;66637;-29.628;-49.938;2023-05-17T04:46:35;8.68;;;1.10;;
77522;SDS011;66637;-29.628;-49.938;2023-05-17T04:49:06;7.82;;;1.20;;
77522;SDS011;66637;-29.628;-49.938;2023-05-17T04:51:37;8.05;;;1.05;;
77522;SDS011;66637;-29.628;-49.938;2023-05-17T04:54:10;11.55;;;1.45;;
77522;SDS011;66637;-29.628;-49.938;2023-05-17T04:56:41;12.50;;;1.40;;
77522;SDS011;66637;-29.628;-49.938;2023-05-17T04:59:16;10.90;;;1.70;;
77522;SDS011;66637;-29.628;-49.938;2023-05-17T05:01:47;10.00;;;1.40;;
77522;SDS011;66637;-29.628;-49.938;2023-05-17T05:04:17;9.05;;;1.60;;
77522;SDS011;66637;-29.628;-49.938;2023-05-17T05:06:51;8.55;;;2.20;;
77522;SDS011;66637;-29.628;-49.938;2023-05-17T05:09:22;9.05;;;1.88;;
77522;SDS011;66637;-29.628;-49.938;2023-05-17T05:11:54;7.13;;;1.90;;
77522;SDS011;66637;-29.628;-49.938;2023-05-17T05:14:26;9.70;;;1.80;;
77522;SDS011;66637;-29.628;-49.938;2023-05-17T05:16:58;11.98;;;2.20;;
77522;SDS011;66637;-29.628;-49.938;2023-05-17T05:19:28;8.15;;;1.70;;
77522;SDS011;66637;-29.628;-49.938;2023-05-17T05:22:00;6.35;;;1.95;;
77522;SDS011;66637;-29.628;-49.938;2023-05-17T05:24:32;7.88;;;1.67;;
77522;SDS011;66637;-29.628;-49.938;2023-05-17T05:30:06;11.90;;;1.70;;
77522;SDS011;66637;-29.628;-49.938;2023-05-17T05:32:37;9.35;;;1.67;;
77522;SDS011;66637;-29.628;-49.938;2023-05-17T05:35:08;8.85;;;1.80;;
77522;SDS011;66637;-29.628;-49.938;2023-05-17T05:37:41;7.57;;;1.30;;
77522;SDS011;66637;-29.628;-49.938;2023-05-17T05:40:12;7.32;;;1.30;;
77522;SDS011;66637;-29.628;-49.938;2023-05-17T05:42:43;8.13;;;1.40;;
77522;SDS011;66637;-29.628;-49.938;2023-05-17T05:45:14;5.95;;;1.15;;
77522;SDS011;66637;-29.628;-49.938;2023-05-17T05:47:47;4.70;;;0.95;;
77522;SDS011;66637;-29.628;-49.938;2023-05-17T05:50:19;9.90;;;1.00;;
77522;SDS011;66637;-29.628;-49.938;2023-05-17T05:52:53;7.50;;;1.33;;
77522;SDS011;66637;-29.628;-49.938;2023-05-17T05:55:47;6.18;;;1.13;;
77522;SDS011;66637;-29.628;-49.938;2023-05-17T05:58:19;9.00;;;1.23;;
77522;SDS011;66637;-29.628;-49.938;2023-05-17T06:00:58;6.82;;;1.08;;
77522;SDS011;66637;-29.628;-49.938;2023-05-17T06:03:32;8.68;;;1.27;;
77522;SDS011;66637;-29.628;-49.938;2023-05-17T06:06:03;7.15;;;0.90;;
77522;SDS011;66637;-29.628;-49.938;2023-05-17T06:08:34;8.80;;;1.20;;
77522;SDS011;66637;-29.628;-49.938;2023-05-17T06:11:05;6.50;;;1.17;;
77522;SDS011;66637;-29.628;-49.938;2023-05-17T06:13:37;7.00;;;1.45;;
77522;SDS011;66637;-29.628;-49.938;2023-05-17T06:16:08;5.90;;;1.00;;
77522;SDS011;66637;-29.628;-49.938;2023-05-17T06:18:38;6.43;;;1.55;;
77522;SDS011;66637;-29.628;-49.938;2023-05-17T06:21:09;7.78;;;1.77;;
77522;SDS011;66637;-29.628;-49.938;2023-05-17T06:23:41;8.15;;;1.13;;
77522;SDS011;66637;-29.628;-49.938;2023-05-17T06:26:12;5.28;;;1.23;;
77522;SDS011;66637;-29.628;-49.938;2023-05-17T06:28:43;7.22;;;1.17;;
77522;SDS011;66637;-29.628;-49.938;2023-05-17T06:31:14;6.00;;;1.20;;
77522;SDS011;66637;-29.628;-49.938;2023-05-17T06:33:47;7.00;;;1.05;;
77522;SDS011;66637;-29.628;-49.938;2023-05-17T06:36:18;6.03;;;1.33;;
77522;SDS011;66637;-29.628;-49.938;2023-05-17T06:38:49;6.75;;;1.42;;
77522;SDS011;66637;-29.628;-49.938;2023-05-17T06:41:19;4.30;;;1.10;;
77522;SDS011;66637;-29.628;-49.938;2023-05-17T06:43:51;6.93;;;1.48;;
77522;SDS011;66637;-29.628;-49.938;2023-05-17T06:46:21;8.82;;;1.30;;
77522;SDS011;66637;-29.628;-49.938;2023-05-17T06:48:51;7.07;;;1.10;;
77522;SDS011;66637;-29.628;-49.938;2023-05-17T06:51:22;7.15;;;1.17;;
77522;SDS011;66637;-29.628;-49.938;2023-05-17T06:53:54;8.50;;;1.63;;
77522;SDS011;66637;-29.628;-49.938;2023-05-17T06:56:25;8.45;;;1.90;;
77522;SDS011;66637;-29.628;-49.938;2023-05-17T06:58:57;7.07;;;1.50;;
77522;SDS011;66637;-29.628;-49.938;2023-05-17T07:01:28;7.05;;;1.25;;
77522;SDS011;66637;-29.628;-49.938;2023-05-17T07:03:59;7.72;;;1.42;;
77522;SDS011;66637;-29.628;-49.938;2023-05-17T07:06:32;9.75;;;1.40;;
77522;SDS011;66637;-29.628;-49.938;2023-05-17T07:09:03;7.53;;;1.20;;
77522;SDS011;66637;-29.628;-49.938;2023-05-17T07:11:34;12.23;;;1.52;;
77522;SDS011;66637;-29.628;-49.938;2023-05-17T07:14:08;10.55;;;1.58;;
77522;SDS011;66637;-29.628;-49.938;2023-05-17T07:16:40;8.70;;;1.58;;
77522;SDS011;66637;-29.628;-49.938;2023-05-17T07:19:10;7.22;;;1.50;;
77522;SDS011;66637;-29.628;-49.938;2023-05-17T07:21:42;9.93;;;1.60;;
77522;SDS011;66637;-29.628;-49.938;2023-05-17T07:24:13;9.07;;;1.55;;
77522;SDS011;66637;-29.628;-49.938;2023-05-17T07:26:44;10.85;;;1.42;;
77522;SDS011;66637;-29.628;-49.938;2023-05-17T07:29:19;8.70;;;1.42;;
77522;SDS011;66637;-29.628;-49.938;2023-05-17T07:31:50;6.82;;;1.23;;
77522;SDS011;66637;-29.628;-49.938;2023-05-17T07:34:20;5.22;;;1.23;;
77522;SDS011;66637;-29.628;-49.938;2023-05-17T07:36:51;5.57;;;1.23;;
77522;SDS011;66637;-29.628;-49.938;2023-05-17T07:39:23;7.20;;;1.40;;
77522;SDS011;66637;-29.628;-49.938;2023-05-17T07:41:54;6.13;;;1.33;;
77522;SDS011;66637;-29.628;-49.938;2023-05-17T07:44:25;7.63;;;1.15;;
77522;SDS011;66637;-29.628;-49.938;2023-05-17T07:46:55;8.15;;;1.27;;
77522;SDS011;66637;-29.628;-49.938;2023-05-17T07:49:29;9.20;;;1.27;;
77522;SDS011;66637;-29.628;-49.938;2023-05-17T07:52:00;7.28;;;1.27;;
77522;SDS011;66637;-29.628;-49.938;2023-05-17T07:54:31;9.45;;;1.52;;
77522;SDS011;66637;-29.628;-49.938;2023-05-17T07:57:02;5.78;;;1.23;;
77522;SDS011;66637;-29.628;-49.938;2023-05-17T07:59:33;5.47;;;1.30;;
77522;SDS011;66637;-29.628;-49.938;2023-05-17T08:02:04;5.85;;;0.98;;
77522;SDS011;66637;-29.628;-49.938;2023-05-17T08:04:36;8.93;;;1.77;;
77522;SDS011;66637;-29.628;-49.938;2023-05-17T08:07:08;6.85;;;1.02;;
77522;SDS011;66637;-29.628;-49.938;2023-05-17T08:09:38;5.38;;;1.15;;
77522;SDS011;66637;-29.628;-49.938;2023-05-17T08:12:12;5.88;;;1.02;;
77522;SDS011;66637;-29.628;-49.938;2023-05-17T08:14:42;8.88;;;1.13;;
77522;SDS011;66637;-29.628;-49.938;2023-05-17T08:17:13;7.93;;;1.23;;
77522;SDS011;66637;-29.628;-49.938;2023-05-17T08:19:44;9.57;;;1.25;;
77522;SDS011;66637;-29.628;-49.938;2023-05-17T08:22:15;9.43;;;1.80;;
77522;SDS011;66637;-29.628;-49.938;2023-05-17T08:24:47;6.65;;;1.20;;
77522;SDS011;66637;-29.628;-49.938;2023-05-17T08:27:18;5.68;;;1.00;;
77522;SDS011;66637;-29.628;-49.938;2023-05-17T08:29:50;8.48;;;1.20;;
77522;SDS011;66637;-29.628;-49.938;2023-05-17T08:32:23;7.82;;;1.27;;
77522;SDS011;66637;-29.628;-49.938;2023-05-17T08:34:55;6.10;;;1.48;;
77522;SDS011;66637;-29.628;-49.938;2023-05-17T08:37:29;5.50;;;1.00;;
77522;SDS011;66637;-29.628;-49.938;2023-05-17T08:40:00;9.18;;;1.30;;
77522;SDS011;66637;-29.628;-49.938;2023-05-17T08:42:31;6.38;;;1.15;;
77522;SDS011;66637;-29.628;-49.938;2023-05-17T08:45:04;7.15;;;1.20;;
77522;SDS011;66637;-29.628;-49.938;2023-05-17T08:47:37;4.70;;;0.95;;
77522;SDS011;66637;-29.628;-49.938;2023-05-17T08:50:12;8.07;;;1.10;;
77522;SDS011;66637;-29.628;-49.938;2023-05-17T08:52:44;7.90;;;1.05;;
77522;SDS011;66637;-29.628;-49.938;2023-05-17T08:55:15;4.75;;;0.85;;
77522;SDS011;66637;-29.628;-49.938;2023-05-17T08:57:48;6.07;;;0.98;;
77522;SDS011;66637;-29.628;-49.938;2023-05-17T09:00:20;5.95;;;1.10;;
77522;SDS011;66637;-29.628;-49.938;2023-05-17T09:02:55;8.63;;;1.15;;
77522;SDS011;66637;-29.628;-49.938;2023-05-17T09:05:27;8.65;;;1.40;;
77522;SDS011;66637;-29.628;-49.938;2023-05-17T09:07:58;6.53;;;1.27;;
77522;SDS011;66637;-29.628;-49.938;2023-05-17T09:10:28;7.70;;;1.52;;
77522;SDS011;66637;-29.628;-49.938;2023-05-17T09:12:59;6.13;;;1.10;;
77522;SDS011;66637;-29.628;-49.938;2023-05-17T09:15:30;7.13;;;0.90;;
77522;SDS011;66637;-29.628;-49.938;2023-05-17T09:18:02;7.07;;;1.42;;
77522;SDS011;66637;-29.628;-49.938;2023-05-17T09:20:34;6.50;;;1.13;;
77522;SDS011;66637;-29.628;-49.938;2023-05-17T09:23:06;9.07;;;0.98;;
77522;SDS011;66637;-29.628;-49.938;2023-05-17T09:25:48;5.95;;;0.90;;
77522;SDS011;66637;-29.628;-49.938;2023-05-17T09:28:20;7.38;;;1.10;;
77522;SDS011;66637;-29.628;-49.938;2023-05-17T09:30:50;6.47;;;1.05;;
77522;SDS011;66637;-29.628;-49.938;2023-05-17T09:33:21;6.93;;;0.80;;
77522;SDS011;66637;-29.628;-49.938;2023-05-17T09:35:53;6.88;;;1.00;;
77522;SDS011;66637;-29.628;-49.938;2023-05-17T09:38:27;9.18;;;1.15;;
77522;SDS011;66637;-29.628;-49.938;2023-05-17T09:40:59;8.43;;;1.25;;
77522;SDS011;66637;-29.628;-49.938;2023-05-17T09:43:31;3.85;;;0.88;;
77522;SDS011;66637;-29.628;-49.938;2023-05-17T09:46:01;6.55;;;1.05;;
77522;SDS011;66637;-29.628;-49.938;2023-05-17T09:48:33;4.10;;;1.13;;
77522;SDS011;66637;-29.628;-49.938;2023-05-17T09:51:08;6.53;;;1.20;;
77522;SDS011;66637;-29.628;-49.938;2023-05-17T09:53:39;8.05;;;1.20;;
77522;SDS011;66637;-29.628;-49.938;2023-05-17T09:56:11;7.57;;;1.50;;
77522;SDS011;66637;-29.628;-49.938;2023-05-17T09:58:42;4.57;;;0.85;;
77522;SDS011;66637;-29.628;-49.938;2023-05-17T10:01:14;8.00;;;1.20;;
77522;SDS011;66637;-29.628;-49.938;2023-05-17T10:03:47;5.05;;;0.88;;
77522;SDS011;66637;-29.628;-49.938;2023-05-17T10:06:23;7.15;;;1.20;;
77522;SDS011;66637;-29.628;-49.938;2023-05-17T10:09:13;5.68;;;1.63;;
77522;SDS011;66637;-29.628;-49.938;2023-05-17T10:11:44;6.68;;;1.10;;
77522;SDS011;66637;-29.628;-49.938;2023-05-17T10:14:16;6.35;;;1.00;;
77522;SDS011;66637;-29.628;-49.938;2023-05-17T10:16:51;7.10;;;1.30;;
77522;SDS011;66637;-29.628;-49.938;2023-05-17T10:19:23;8.27;;;1.50;;
77522;SDS011;66637;-29.628;-49.938;2023-05-17T10:21:56;8.52;;;1.20;;
77522;SDS011;66637;-29.628;-49.938;2023-05-17T10:24:48;5.47;;;1.20;;
77522;SDS011;66637;-29.628;-49.938;2023-05-17T10:27:20;5.88;;;1.05;;
77522;SDS011;66637;-29.628;-49.938;2023-05-17T10:29:52;6.40;;;1.48;;
77522;SDS011;66637;-29.628;-49.938;2023-05-17T10:32:24;5.38;;;1.00;;
77522;SDS011;66637;-29.628;-49.938;2023-05-17T10:34:59;9.45;;;1.20;;
77522;SDS011;66637;-29.628;-49.938;2023-05-17T10:37:39;5.65;;;1.10;;
77522;SDS011;66637;-29.628;-49.938;2023-05-17T10:40:10;6.00;;;1.00;;
77522;SDS011;66637;-29.628;-49.938;2023-05-17T10:42:48;5.63;;;0.90;;
77522;SDS011;66637;-29.628;-49.938;2023-05-17T10:45:22;7.03;;;1.15;;
77522;SDS011;66637;-29.628;-49.938;2023-05-17T10:47:54;6.68;;;1.00;;
77522;SDS011;66637;-29.628;-49.938;2023-05-17T10:50:28;8.85;;;1.27;;
77522;SDS011;66637;-29.628;-49.938;2023-05-17T10:52:59;4.38;;;1.10;;
77522;SDS011;66637;-29.628;-49.938;2023-05-17T10:55:36;6.07;;;1.38;;
77522;SDS011;66637;-29.628;-49.938;2023-05-17T11:03:26;7.38;;;2.17;;
77522;SDS011;66637;-29.628;-49.938;2023-05-17T11:06:12;9.60;;;2.17;;
77522;SDS011;66637;-29.628;-49.938;2023-05-17T11:09:05;9.18;;;1.85;;
77522;SDS011;66637;-29.628;-49.938;2023-05-17T11:14:52;10.68;;;2.30;;
77522;SDS011;66637;-29.628;-49.938;2023-05-17T11:17:35;10.35;;;2.45;;
77522;SDS011;66637;-29.628;-49.938;2023-05-17T11:22:59;5.57;;;1.60;;
77522;SDS011;66637;-29.628;-49.938;2023-05-17T11:25:45;9.85;;;1.52;;
77522;SDS011;66637;-29.628;-49.938;2023-05-17T11:30:51;9.95;;;1.30;;
77522;SDS011;66637;-29.628;-49.938;2023-05-17T11:33:42;7.47;;;1.02;;
77522;SDS011;66637;-29.628;-49.938;2023-05-17T11:36:19;9.93;;;2.38;;
77522;SDS011;66637;-29.628;-49.938;2023-05-17T11:39:08;9.65;;;1.15;;
77522;SDS011;66637;-29.628;-49.938;2023-05-17T11:42:01;7.88;;;1.40;;
77522;SDS011;66637;-29.628;-49.938;2023-05-17T11:44:33;8.93;;;1.20;;
77522;SDS011;66637;-29.628;-49.938;2023-05-17T11:47:07;5.95;;;1.10;;
77522;SDS011;66637;-29.628;-49.938;2023-05-17T11:49:40;5.60;;;0.93;;
77522;SDS011;66637;-29.628;-49.938;2023-05-17T11:52:10;7.50;;;1.23;;
77522;SDS011;66637;-29.628;-49.938;2023-05-17T11:54:47;6.63;;;1.17;;
77522;SDS011;66637;-29.628;-49.938;2023-05-17T11:57:18;7.75;;;1.13;;
77522;SDS011;66637;-29.628;-49.938;2023-05-17T11:59:56;11.57;;;2.05;;
77522;SDS011;66637;-29.628;-49.938;2023-05-17T12:02:38;8.40;;;0.85;;
77522;SDS011;66637;-29.628;-49.938;2023-05-17T12:05:10;11.20;;;1.17;;
77522;SDS011;66637;-29.628;-49.938;2023-05-17T12:07:48;7.75;;;1.00;;
77522;SDS011;66637;-29.628;-49.938;2023-05-17T12:10:21;9.10;;;1.25;;
77522;SDS011;66637;-29.628;-49.938;2023-05-17T12:12:52;9.70;;;1.40;;
77522;SDS011;66637;-29.628;-49.938;2023-05-17T12:15:22;8.45;;;1.58;;
77522;SDS011;66637;-29.628;-49.938;2023-05-17T12:17:54;6.18;;;1.08;;
77522;SDS011;66637;-29.628;-49.938;2023-05-17T12:20:25;7.78;;;1.13;;
77522;SDS011;66637;-29.628;-49.938;2023-05-17T12:22:58;11.10;;;1.50;;
77522;SDS011;66637;-29.628;-49.938;2023-05-17T12:25:28;10.43;;;1.30;;
77522;SDS011;66637;-29.628;-49.938;2023-05-17T12:28:15;11.00;;;1.35;;
77522;SDS011;66637;-29.628;-49.938;2023-05-17T12:30:52;7.25;;;1.30;;
77522;SDS011;66637;-29.628;-49.938;2023-05-17T12:33:26;9.35;;;1.10;;
77522;SDS011;66637;-29.628;-49.938;2023-05-17T12:36:02;7.72;;;1.25;;
77522;SDS011;66637;-29.628;-49.938;2023-05-17T12:38:34;6.25;;;1.20;;
77522;SDS011;66637;-29.628;-49.938;2023-05-17T12:41:10;7.45;;;1.10;;
77522;SDS011;66637;-29.628;-49.938;2023-05-17T12:43:43;8.60;;;1.35;;
77522;SDS011;66637;-29.628;-49.938;2023-05-17T12:46:15;8.68;;;1.40;;
77522;SDS011;66637;-29.628;-49.938;2023-05-17T12:48:50;7.30;;;1.30;;
77522;SDS011;66637;-29.628;-49.938;2023-05-17T12:51:22;10.15;;;1.27;;
77522;SDS011;66637;-29.628;-49.938;2023-05-17T12:53:54;14.05;;;1.50;;
77522;SDS011;66637;-29.628;-49.938;2023-05-17T12:56:28;7.50;;;1.00;;
77522;SDS011;66637;-29.628;-49.938;2023-05-17T13:01:48;9.38;;;1.40;;
77522;SDS011;66637;-29.628;-49.938;2023-05-17T13:04:30;8.60;;;1.50;;
77522;SDS011;66637;-29.628;-49.938;2023-05-17T13:07:03;6.50;;;1.02;;
77522;SDS011;66637;-29.628;-49.938;2023-05-17T13:09:44;12.27;;;1.88;;
77522;SDS011;66637;-29.628;-49.938;2023-05-17T13:12:20;5.28;;;1.30;;
77522;SDS011;66637;-29.628;-49.938;2023-05-17T13:14:56;10.27;;;1.25;;
77522;SDS011;66637;-29.628;-49.938;2023-05-17T13:17:34;33.95;;;4.35;;
77522;SDS011;66637;-29.628;-49.938;2023-05-17T13:20:09;43.15;;;5.13;;
77522;SDS011;66637;-29.628;-49.938;2023-05-17T13:22:47;44.63;;;6.00;;
77522;SDS011;66637;-29.628;-49.938;2023-05-17T13:25:19;33.35;;;4.65;;
77522;SDS011;66637;-29.628;-49.938;2023-05-17T13:27:51;49.90;;;6.28;;
77522;SDS011;66637;-29.628;-49.938;2023-05-17T13:30:28;46.67;;;6.05;;
77522;SDS011;66637;-29.628;-49.938;2023-05-17T13:33:00;36.88;;;5.95;;
77522;SDS011;66637;-29.628;-49.938;2023-05-17T13:38:07;32.72;;;4.90;;
77522;SDS011;66637;-29.628;-49.938;2023-05-17T13:41:03;17.17;;;3.00;;
77522;SDS011;66637;-29.628;-49.938;2023-05-17T13:43:39;33.88;;;5.60;;
77522;SDS011;66637;-29.628;-49.938;2023-05-17T13:46:10;41.10;;;6.47;;
77522;SDS011;66637;-29.628;-49.938;2023-05-17T13:48:43;20.75;;;3.55;;
77522;SDS011;66637;-29.628;-49.938;2023-05-17T13:51:14;44.97;;;5.90;;
77522;SDS011;66637;-29.628;-49.938;2023-05-17T13:53:45;30.80;;;5.22;;
77522;SDS011;66637;-29.628;-49.938;2023-05-17T13:56:16;46.38;;;6.30;;
77522;SDS011;66637;-29.628;-49.938;2023-05-17T13:58:47;47.42;;;6.45;;
77522;SDS011;66637;-29.628;-49.938;2023-05-17T14:01:20;30.02;;;5.15;;
77522;SDS011;66637;-29.628;-49.938;2023-05-17T14:03:52;39.75;;;6.18;;
77522;SDS011;66637;-29.628;-49.938;2023-05-17T14:06:27;40.97;;;6.63;;
77522;SDS011;66637;-29.628;-49.938;2023-05-17T14:09:01;57.95;;;7.90;;
77522;SDS011;66637;-29.628;-49.938;2023-05-17T14:11:33;39.05;;;5.95;;
77522;SDS011;66637;-29.628;-49.938;2023-05-17T14:14:05;37.97;;;5.60;;
77522;SDS011;66637;-29.628;-49.938;2023-05-17T14:16:38;38.88;;;6.45;;
77522;SDS011;66637;-29.628;-49.938;2023-05-17T14:19:13;49.45;;;7.20;;
77522;SDS011;66637;-29.628;-49.938;2023-05-17T14:21:44;40.78;;;5.38;;
77522;SDS011;66637;-29.628;-49.938;2023-05-17T14:24:16;38.28;;;5.88;;
77522;SDS011;66637;-29.628;-49.938;2023-05-17T14:26:49;39.60;;;5.15;;
77522;SDS011;66637;-29.628;-49.938;2023-05-17T14:29:21;35.33;;;5.57;;
77522;SDS011;66637;-29.628;-49.938;2023-05-17T14:31:53;39.72;;;5.80;;
77522;SDS011;66637;-29.628;-49.938;2023-05-17T14:34:23;26.02;;;4.45;;
77522;SDS011;66637;-29.628;-49.938;2023-05-17T14:36:57;50.03;;;5.72;;
77522;SDS011;66637;-29.628;-49.938;2023-05-17T14:39:28;33.03;;;5.28;;
77522;SDS011;66637;-29.628;-49.938;2023-05-17T14:41:59;40.75;;;6.22;;
77522;SDS011;66637;-29.628;-49.938;2023-05-17T14:44:33;33.22;;;4.40;;
77522;SDS011;66637;-29.628;-49.938;2023-05-17T14:47:06;24.15;;;3.75;;
77522;SDS011;66637;-29.628;-49.938;2023-05-17T14:49:37;46.65;;;7.40;;
77522;SDS011;66637;-29.628;-49.938;2023-05-17T14:52:08;27.90;;;4.80;;
77522;SDS011;66637;-29.628;-49.938;2023-05-17T14:54:43;32.88;;;4.63;;
77522;SDS011;66637;-29.628;-49.938;2023-05-17T14:57:14;33.83;;;5.75;;
77522;SDS011;66637;-29.628;-49.938;2023-05-17T14:59:45;37.08;;;5.47;;
77522;SDS011;66637;-29.628;-49.938;2023-05-17T15:02:17;42.92;;;6.47;;
77522;SDS011;66637;-29.628;-49.938;2023-05-17T15:04:47;43.28;;;6.40;;
77522;SDS011;66637;-29.628;-49.938;2023-05-17T15:07:18;38.55;;;5.75;;
77522;SDS011;66637;-29.628;-49.938;2023-05-17T15:09:50;30.98;;;4.97;;
77522;SDS011;66637;-29.628;-49.938;2023-05-17T15:12:23;30.48;;;4.93;;
77522;SDS011;66637;-29.628;-49.938;2023-05-17T15:14:54;40.53;;;5.97;;
77522;SDS011;66637;-29.628;-49.938;2023-05-17T15:17:26;30.17;;;5.13;;
77522;SDS011;66637;-29.628;-49.938;2023-05-17T15:19:56;22.98;;;3.85;;